Data for 07/27/2005

Time Sea-Level Adjusted Pressure Absolute Pressure Temperature Relative Humidity Dew Point   
(mb) (inHg) (mb) (inHg) (C) (F) (%) (C) (F)
00:05 1023 30.21 852 25.16 13.9 57.1 50 3.6 38.5
00:10 1023 30.21 852 25.16 13.9 57 51 3.9 39
00:15 1023 30.21 852 25.16 14 57.2 49 3.6 38.5
00:20 1023 30.21 852 25.16 13.8 56.8 51 4 39.1
00:25 1023 30.21 852 25.16 13.7 56.7 54 4.6 40.2
00:30 1023 30.21 852 25.16 13.7 56.6 54 4.7 40.4
00:35 1023 30.21 852 25.16 13.6 56.5 52 4.1 39.4
00:40 1023 30.21 852 25.16 13.6 56.5 53 4.2 39.6
00:45 1023 30.21 852 25.16 13.5 56.4 54 4.4 39.9
00:50 1023 30.21 852 25.16 13.3 55.9 53 4 39.3
00:55 1023 30.21 852 25.16 13 55.4 57 4.8 40.6
01:00 1023 30.21 852 25.16 12.8 55 54 3.7 38.7
01:05 1023 30.21 852 25.16 13.3 55.9 51 3.4 38.2
01:10 1023 30.21 852 25.16 13.5 56.3 52 4 39.2
01:15 1023 30.21 852 25.16 13.3 55.9 53 4 39.2
01:20 1023 30.21 852 25.16 13.2 55.8 53 4 39.3
01:25 1023 30.21 852 25.16 13.1 55.5 54 4.2 39.5
01:30 1023 30.21 852 25.16 12.8 55.1 55 4.1 39.4
01:35 1023 30.21 852 25.16 13 55.4 53 3.7 38.6
01:40 1023 30.21 852 25.16 12.9 55.2 55 4.1 39.3
01:45 1023 30.21 852 25.16 12.8 55 53 3.6 38.4
01:50 1023 30.21 852 25.16 12.9 55.3 53 3.7 38.7
01:55 1023 30.21 852 25.16 12.9 55.2 53 3.7 38.6
02:00 1023 30.21 852 25.16 12.9 55.2 53 3.7 38.6
02:05 1023 30.21 852 25.16 12.6 54.7 54 3.6 38.5
02:10 1023 30.21 852 25.16 12.6 54.6 53 3.4 38.1
02:15 1023 30.21 852 25.16 12.6 54.7 54 3.5 38.3
02:20 1023 30.21 852 25.16 12.6 54.7 53 3.4 38.1
02:25 1023 30.21 852 25.16 12.4 54.3 55 3.7 38.6
02:30 1023 30.21 852 25.16 12.3 54.2 55 3.5 38.4
02:35 1023 30.21 852 25.16 12.4 54.3 55 3.5 38.4
02:40 1023 30.21 852 25.16 12.2 54 56 3.8 38.8
02:45 1023 30.21 852 25.16 12 53.6 55 3.4 38.2
02:50 1023 30.21 852 25.16 12.2 53.9 55 3.5 38.4
02:55 1023 30.21 852 25.16 12 53.7 56 3.7 38.7
03:00 1023 30.21 852 25.16 11.9 53.4 57 3.7 38.6
03:05 1023 30.21 852 25.16 11.8 53.3 56 3.4 38.1
03:10 1023 30.21 852 25.16 12 53.6 55 3.3 37.9
03:15 1023 30.21 852 25.16 12.6 54.8 52 3.2 37.7
03:20 1023 30.21 852 25.16 13 55.3 52 3.3 37.9
03:25 1023 30.21 852 25.16 13.2 55.7 49 2.7 36.9
03:30 1023 30.21 852 25.16 12.9 55.3 53 3.6 38.4
03:35 1023 30.21 852 25.16 12.7 54.8 52 3.1 37.7
03:40 1023 30.21 852 25.16 12.8 55 51 3 37.3
03:45 1023 30.21 852 25.16 12.6 54.8 52 3.2 37.7
03:50 1023 30.21 852 25.16 12.5 54.4 53 3.3 37.9
03:55 1023 30.21 852 25.16 12.1 53.7 56 3.7 38.7
04:00 1023 30.21 852 25.16 12 53.5 56 3.5 38.3
04:05 1023 30.21 852 25.16 12 53.5 55 3.3 37.9
04:10 1023 30.21 852 25.16 11.7 53 56 3.2 37.8
04:15 1023 30.21 852 25.16 11.8 53.2 56 3.3 37.9
04:20 1023 30.21 852 25.16 11.6 52.9 58 3.6 38.5
04:25 1023 30.21 852 25.16 11.1 51.9 60 3.5 38.4
04:30 1023 30.21 852 25.16 11 51.7 59 3.3 37.9
04:35 1023 30.21 852 25.16 11.2 52.2 58 3.3 38
04:40 1023 30.21 852 25.16 11.4 52.5 55 2.8 37.1
04:45 1023 30.21 852 25.16 11.9 53.3 55 3.1 37.5
04:50 1023 30.21 852 25.16 11.6 52.9 56 3.3 37.9
04:55 1023 30.21 852 25.16 11.3 52.3 58 3.5 38.2
05:00 1023 30.21 852 25.16 11 51.8 59 3.4 38.1
05:05 1023 30.21 852 25.16 11 51.9 57 3 37.4
05:10 1023 30.21 852 25.16 11.3 52.3 57 3.2 37.8
05:15 1023 30.21 852 25.16 11.3 52.4 56 3 37.4
05:20 1023 30.21 852 25.16 11.6 52.8 55 2.8 37.1
05:25 1023 30.21 852 25.16 11.8 53.2 55 3.1 37.5
05:30 1023 30.21 852 25.16 11.5 52.6 57 3.4 38.1
05:35 1023 30.21 852 25.16 11.3 52.4 57 3.1 37.5
05:40 1023 30.21 852 25.16 11.6 52.8 55 2.9 37.1
05:45 1023 30.21 852 25.16 11.9 53.3 53 2.8 37
05:50 1023 30.21 852 25.16 11.9 53.4 55 3.1 37.7
05:55 1023 30.21 852 25.16 11.7 53 55 3 37.4
06:00 1023 30.21 852 25.16 11.3 52.4 57 3.3 37.9
06:05 1023 30.21 852 25.16 11 51.7 58 3.2 37.7
06:10 1023 30.21 852 25.16 10.9 51.6 59 3.1 37.6
06:15 1023 30.21 852 25.16 11 51.7 58 3.1 37.6
06:20 1023 30.21 852 25.16 11.1 51.9 57 2.9 37.2
06:25 1023 30.21 852 25.16 11.5 52.8 55 2.9 37.3
06:30 1023 30.21 852 25.16 11.6 52.9 55 3 37.3
06:35 1023 30.21 852 25.16 11.6 52.9 56 3.1 37.6
06:40 1023 30.21 852 25.16 11.6 52.8 55 2.9 37.2
06:45 1023 30.21 852 25.16 12.1 53.8 52 2.7 36.8
06:50 1023 30.21 852 25.16 12.4 54.4 53 3.1 37.5
06:55 1023 30.21 852 25.16 12.4 54.4 53 3.2 37.8
07:00 1023 30.21 852 25.16 12.1 53.7 56 3.5 38.3
07:05 1023 30.21 852 25.16 11.9 53.4 53 2.8 37
07:10 1023 30.21 853 25.19 12.2 54 54 3.2 37.7
07:15 1023 30.21 853 25.19 12.5 54.4 54 3.5 38.3
07:20 1023 30.21 853 25.19 12.6 54.7 54 3.7 38.7
07:25 1023 30.21 853 25.19 12.5 54.5 56 3.9 39.1
07:30 1023 30.21 853 25.19 12.8 55 53 3.5 38.3
07:35 1023 30.21 853 25.19 13.1 55.5 53 3.8 38.8
07:40 1024 30.24 853 25.19 13.3 55.9 52 3.6 38.4
07:45 1024 30.24 853 25.19 13.5 56.4 52 4 39.3
07:50 1024 30.24 853 25.19 14 57.2 51 4 39.1
07:55 1024 30.24 853 25.19 14.5 58.1 48 3.7 38.6
08:00 1024 30.24 853 25.19 14.7 58.4 49 4.2 39.5
08:05 1024 30.24 853 25.19 15.2 59.3 46 3.7 38.7
08:10 1024 30.24 853 25.19 15.3 59.6 45 3.7 38.7
08:15 1024 30.24 853 25.19 15.8 60.5 43 3.4 38.1
08:20 1024 30.24 853 25.19 16 60.9 43 3.7 38.6
08:25 1024 30.24 853 25.19 16.3 61.3 44 4.1 39.3
08:30 1024 30.24 853 25.19 16.9 62.4 43 4.5 40
08:35 1024 30.24 853 25.19 16.6 61.9 44 4.4 39.9
08:40 1024 30.24 853 25.19 16.9 62.3 43 4.2 39.6
08:45 1024 30.24 853 25.19 17.1 62.8 42 4.3 39.7
08:50 1024 30.24 853 25.19 17.5 63.6 39 3.6 38.6
08:55 1024 30.24 853 25.19 18.3 64.9 39 4.3 39.7
09:00 1024 30.24 853 25.19 18.8 65.8 35 3.1 37.5
09:05 1024 30.24 853 25.19 19 66.1 36 3.9 39
09:10 1024 30.24 853 25.19 18.9 66 37 4 39.1
09:15 1024 30.24 853 25.19 18.4 65.2 39 4.4 39.8
09:20 1024 30.24 853 25.19 18.9 66.1 39 4.7 40.5
09:25 1024 30.24 853 25.19 19.2 66.6 37 4.3 39.8
09:30 1024 30.24 853 25.19 19.7 67.4 34 3.7 38.7
09:35 1024 30.24 853 25.19 19.8 67.7 34 3.5 38.3
09:40 1024 30.24 853 25.19 20.3 68.6 31 2.8 37
09:45 1024 30.24 853 25.19 20.1 68.2 33 3.5 38.2
09:50 1024 30.24 853 25.19 20.3 68.5 32 3.2 37.8
09:55 1024 30.24 853 25.19 20.5 69 32 3.7 38.6
10:00 1024 30.24 853 25.19 20.7 69.2 31 2.9 37.2
10:05 1024 30.24 853 25.19 21.4 70.5 29 3 37.5
10:10 1024 30.24 853 25.19 21.2 70.2 32 3.9 39
10:15 1024 30.24 853 25.19 20.7 69.3 30 2.8 37.1
10:20 1023 30.21 853 25.19 21.6 70.9 29 3.2 37.8
10:25 1023 30.21 853 25.19 22.2 71.9 29 3.3 37.9
10:30 1023 30.21 853 25.19 22 71.5 31 4.1 39.5
10:35 1023 30.21 853 25.19 21.2 70.2 30 3.2 37.7
10:40 1023 30.21 853 25.19 21.2 70.2 31 3.6 38.5
10:45 1023 30.21 853 25.19 21.5 70.7 31 3.6 38.5
10:50 1023 30.21 853 25.19 21.9 71.4 30 3.7 38.7
10:55 1023 30.21 853 25.19 22.3 72.1 28 3.2 37.8
11:00 1023 30.21 853 25.19 22.1 71.8 30 4 39.2
11:05 1023 30.21 852 25.16 22.2 72 30 4 39.3
11:10 1023 30.21 853 25.19 22.8 73 28 3.6 38.5
11:15 1023 30.21 852 25.16 22.4 72.3 29 3.8 38.9
11:20 1023 30.21 852 25.16 22.3 72.1 29 3.7 38.7
11:25 1023 30.21 852 25.16 22.5 72.4 28 3.3 37.9
11:30 1023 30.21 852 25.16 22.3 72.2 29 3.7 38.6
11:35 1023 30.21 852 25.16 23.1 73.5 28 3.7 38.6
11:40 1023 30.21 852 25.16 23.5 74.3 28 4.2 39.5
11:45 1023 30.21 852 25.16 23 73.4 27 3.3 37.9
11:50 1023 30.21 852 25.16 23 73.5 28 3.8 38.8
11:55 1023 30.21 852 25.16 23.7 74.6 26 3.3 37.9
12:00 1023 30.21 852 25.16 23.6 74.4 27 3.9 39
12:05 1023 30.21 852 25.16 24.1 75.3 26 3.4 38.1
12:10 1023 30.21 852 25.16 24.6 76.3 25 3.4 38.1
12:15 1023 30.21 852 25.16 23.1 73.6 27 3.4 38.2
12:20 1023 30.21 852 25.16 24 75.1 26 3.4 38.2
12:25 1023 30.21 852 25.16 24.9 76.7 24 3.4 38.1
12:30 1023 30.21 852 25.16 25.2 77.3 23 2.9 37.2
12:35 1023 30.21 852 25.16 24.6 76.2 23 2.6 36.7
12:40 1023 30.21 852 25.16 23.9 75.1 26 3.5 38.2
12:45 1023 30.21 852 25.16 25 77 23 2.5 36.5
12:50 1023 30.21 852 25.16 25.8 78.4 22 2.9 37.3
12:55 1023 30.21 852 25.16 26 78.7 22 2.9 37.2
13:00 1023 30.21 852 25.16 24.6 76.3 22 2 35.6
13:05 1023 30.21 852 25.16 24.6 76.3 24 2.7 36.9
13:10 1022 30.18 852 25.16 25.1 77.2 23 2.8 37.1
13:15 1022 30.18 852 25.16 25.9 78.7 22 2.6 36.7
13:20 1022 30.18 852 25.16 26.5 79.7 21 2.7 36.9
13:25 1022 30.18 852 25.16 26.4 79.4 21 2.9 37.1
13:30 1022 30.18 852 25.16 26.1 79 20 1.7 35.1
13:35 1022 30.18 852 25.16 25.3 77.6 21 1.5 34.6
13:40 1022 30.18 851 25.13 26.5 79.6 21 2.3 36.2
13:45 1022 30.18 851 25.13 26.5 79.6 20 2 35.6
13:50 1022 30.18 851 25.13 26.5 79.8 19 1.6 34.8
13:55 1022 30.18 851 25.13 27 80.6 18 0.9 33.7
14:00 1022 30.18 851 25.13 27.2 80.9 20 2.4 36.3
14:05 1022 30.18 851 25.13 26.7 80.1 20 2.3 36.2
14:10 1022 30.18 851 25.13 27 80.6 19 1.9 35.4
14:15 1022 30.18 851 25.13 26.8 80.2 20 2 35.7
14:20 1022 30.18 851 25.13 27.1 80.8 18 1.4 34.5
14:25 1022 30.18 851 25.13 26.8 80.2 19 1.2 34.1
14:30 1022 30.18 851 25.13 26.5 79.7 19 1.4 34.5
14:35 1022 30.18 851 25.13 26.4 79.5 18 0.6 33.1
14:40 1022 30.18 851 25.13 26.3 79.4 18 0.5 32.9
14:45 1022 30.18 851 25.13 26.5 79.7 18 0.4 32.8
14:50 1022 30.18 851 25.13 26.4 79.5 18 0.6 33.1
14:55 1022 30.18 851 25.13 26.8 80.2 19 1.8 35.3
15:00 1022 30.18 851 25.13 26.1 79 20 1.4 34.5
15:05 1022 30.18 851 25.13 26 78.7 20 1.8 35.3
15:10 1022 30.18 851 25.13 26.5 79.6 20 2.1 35.8
15:15 1022 30.18 851 25.13 27.9 82.2 20 3.4 38.2
15:20 1022 30.18 851 25.13 27.3 81.2 19 2.2 36
15:25 1022 30.18 851 25.13 26.6 79.8 19 1.7 35.1
15:30 1022 30.18 851 25.13 27.4 81.4 18 1.5 34.7
15:35 1021 30.15 851 25.13 27.8 82.1 19 2.7 36.8
15:40 1021 30.15 851 25.13 27.7 81.9 19 2.1 35.8
15:45 1021 30.15 851 25.13 28.4 83.1 17 1.4 34.5
15:50 1021 30.15 851 25.13 28.4 83.1 18 1.9 35.4
15:55 1021 30.15 851 25.13 27.7 81.9 18 1.2 34.2
16:00 1021 30.15 851 25.13 28.2 82.7 18 1.8 35.2
16:05 1021 30.15 851 25.13 27.7 81.9 16 -0.3 31.4
16:10 1021 30.15 850 25.1 27.2 81 16 -0.4 31.3
16:15 1021 30.15 850 25.1 27.7 81.8 16 -0 31.9
16:20 1021 30.15 850 25.1 27.8 82.1 15 -0.8 30.6
16:25 1021 30.15 850 25.1 27.7 81.9 16 -0.4 31.2
16:30 1021 30.15 850 25.1 27.5 81.5 15 -1 30.1
16:35 1021 30.15 850 25.1 27 80.7 15 -1.2 29.9
16:40 1021 30.15 850 25.1 27.2 80.9 15 -1.2 29.8
16:45 1021 30.15 850 25.1 27.3 81.2 15 -1.2 29.9
16:50 1021 30.15 850 25.1 28 82.4 15 -0.4 31.3
16:55 1021 30.15 850 25.1 28.5 83.3 15 -0.7 30.7
17:00 1021 30.15 850 25.1 28.6 83.4 14 -1.4 29.4
17:05 1021 30.15 850 25.1 28.2 82.8 13 -2.1 28.2
17:10 1021 30.15 850 25.1 28 82.4 14 -1.5 29.3
17:15 1021 30.15 850 25.1 27.8 82 14 -2.2 28.1
17:20 1021 30.15 850 25.1 27.6 81.6 14 -2.2 28
17:25 1021 30.15 850 25.1 27.6 81.6 14 -2.2 28.1
17:30 1021 30.15 850 25.1 27.7 81.8 14 -1.9 28.7
17:35 1021 30.15 850 25.1 27.4 81.4 15 -1.5 29.3
17:40 1021 30.15 850 25.1 27.9 82.3 14 -1.7 28.9
17:45 1021 30.15 850 25.1 28.7 83.6 14 -1.2 29.9
17:50 1021 30.15 850 25.1 28.3 82.9 14 -1.5 29.3
17:55 1021 30.15 850 25.1 27.8 82 14 -1.9 28.6
18:00 1021 30.15 850 25.1 28.5 83.2 13 -1.9 28.6
18:05 1021 30.15 850 25.1 28.9 83.9 13 -1.8 28.7
18:10 1021 30.15 850 25.1 29.2 84.6 13 -1.6 29.2
18:15 1021 30.15 850 25.1 29.3 84.7 14 -0.8 30.5
18:20 1020 30.12 850 25.1 29.4 85 14 -0.8 30.6
18:25 1020 30.12 850 25.1 29.6 85.2 14 -0.9 30.4
18:30 1020 30.12 850 25.1 29.7 85.4 14 -0.3 31.4
18:35 1020 30.12 850 25.1 29.3 84.8 13 -1.2 29.8
18:40 1020 30.12 850 25.1 29 84.3 13 -1.9 28.5
18:45 1020 30.12 850 25.1 29 84.3 13 -1.5 29.3
18:50 1020 30.12 849 25.07 29.2 84.5 13 -1.6 29.1
18:55 1020 30.12 849 25.07 29.3 84.7 13 -1.4 29.5
19:00 1020 30.12 849 25.07 29.1 84.4 13 -1.4 29.4
19:05 1020 30.12 849 25.07 28.5 83.2 14 -1.5 29.2
19:10 1020 30.12 849 25.07 27.9 82.2 14 -2.2 28.1
19:15 1020 30.12 849 25.07 27.7 81.8 14 -2 28.3
19:20 1020 30.12 849 25.07 27.3 81.2 14 -1.9 28.5
19:25 1020 30.12 849 25.07 27.3 81.1 15 -1.7 29
19:30 1020 30.12 849 25.07 27.3 81.2 14 -1.8 28.8
19:35 1020 30.12 849 25.07 27.3 81.1 16 -0.4 31.3
19:40 1020 30.12 849 25.07 27.1 80.7 15 -1.1 30
19:45 1020 30.12 849 25.07 26.8 80.3 16 -0.4 31.3
19:50 1020 30.12 849 25.07 26.6 79.9 19 1.6 35
19:55 1020 30.12 849 25.07 26.5 79.6 19 1.2 34.1
20:00 1020 30.12 849 25.07 26.4 79.5 19 1.2 34.2
20:05 1020 30.12 849 25.07 26.3 79.4 23 3.5 38.4
20:10 1020 30.12 849 25.07 26.2 79.1 18 0.1 32.2
20:15 1020 30.12 849 25.07 26 78.9 21 2 35.5
20:20 1020 30.12 849 25.07 25.7 78.2 23 3.5 38.2
20:25 1020 30.12 849 25.07 25.4 77.7 23 2.9 37.2
20:30 1020 30.12 849 25.07 25.2 77.3 30 6.5 43.7
20:35 1020 30.12 849 25.07 24.9 76.8 28 5.5 41.9
20:40 1020 30.12 849 25.07 24.6 76.3 30 6.3 43.3
20:45 1020 30.12 849 25.07 23.9 74.9 34 7.2 44.9
20:50 1020 30.12 849 25.07 23.1 73.7 39 8.8 47.8
20:55 1020 30.12 849 25.07 22.5 72.6 35 6.4 43.6
21:00 1020 30.12 849 25.07 21.8 71.2 38 6.9 44.4
21:05 1020 30.12 849 25.07 21.4 70.5 38 6.7 44
21:10 1020 30.12 849 25.07 20.6 69.1 40 6.8 44.2
21:15 1020 30.12 849 25.07 20.3 68.5 39 6.1 42.9
21:20 1020 30.12 849 25.07 20.1 68.2 35 4.5 40.1
21:25 1020 30.12 849 25.07 19.9 67.8 35 4.3 39.8
21:30 1020 30.12 849 25.07 19.7 67.4 35 3.9 39
21:35 1020 30.12 849 25.07 19.9 67.8 33 3.3 38
21:40 1020 30.12 849 25.07 19.8 67.6 33 3 37.5
21:45 1020 30.12 849 25.07 19.6 67.3 35 3.8 38.8
21:50 1020 30.12 849 25.07 19.2 66.6 34 3.4 38
21:55 1020 30.12 850 25.1 18.9 65.9 35 3.1 37.5
22:00 1020 30.12 850 25.1 18.8 65.8 35 3.3 37.9
22:05 1020 30.12 850 25.1 18.6 65.6 36 3.6 38.4
22:10 1020 30.12 850 25.1 18.4 65 37 3.7 38.6
22:15 1020 30.12 850 25.1 18.2 64.8 40 4.5 40
22:20 1020 30.12 850 25.1 18.1 64.5 37 3.4 38.1
22:25 1020 30.12 850 25.1 17.8 64.1 41 4.6 40.3
22:30 1020 30.12 850 25.1 17.5 63.6 39 3.4 38.1
22:35 1020 30.12 850 25.1 17.4 63.4 38 3.1 37.5
22:40 1020 30.12 850 25.1 17.4 63.3 40 3.9 39.1
22:45 1020 30.12 850 25.1 17.9 64.3 33 1.7 35.1
22:50 1020 30.12 850 25.1 18.4 65.1 33 1.9 35.3
22:55 1021 30.15 850 25.1 18.7 65.7 32 1.8 35.2
23:00 1021 30.15 850 25.1 18.9 66.1 31 1.5 34.7
23:05 1021 30.15 850 25.1 19.5 67 29 1 33.8
23:10 1021 30.15 850 25.1 19.9 67.7 28 1.1 34
23:15 1020 30.12 850 25.1 20 68 28 1.3 34.3
23:20 1020 30.12 850 25.1 20.4 68.7 28 1.5 34.6
23:25 1020 30.12 850 25.1 20.7 69.2 28 1.5 34.7
23:30 1020 30.12 850 25.1 20.9 69.7 28 1.8 35.3
23:35 1020 30.12 850 25.1 20.9 69.7 28 2.1 35.9
23:40 1020 30.12 850 25.1 20.9 69.6 29 2.2 35.9
23:45 1020 30.12 850 25.1 20.8 69.5 29 2.4 36.2
23:50 1020 30.12 850 25.1 20.7 69.3 30 2.6 36.6
23:55 1020 30.12 849 25.07 20.6 69.1 30 2.5 36.4
24:00 1020 30.12 849 25.07 20.5 68.9 30 2.7 36.9